createdAt,value
2018-10-07T00:01:17.302Z,2.00
2018-10-07T00:03:45.987Z,2.13
2018-10-07T00:06:14.741Z,2.00
2018-10-07T00:08:43.495Z,1.70
2018-10-07T00:11:12.208Z,1.43
2018-10-07T00:13:40.936Z,1.47
2018-10-07T00:16:09.583Z,1.60
2018-10-07T00:18:38.877Z,1.77
2018-10-07T00:21:07.609Z,1.37
2018-10-07T00:23:36.296Z,1.13
2018-10-07T00:26:05.066Z,1.33
2018-10-07T00:28:33.825Z,1.50
2018-10-07T00:31:02.539Z,1.13
2018-10-07T00:33:33.642Z,1.20
2018-10-07T00:36:03.104Z,1.10
2018-10-07T00:38:33.106Z,1.20
2018-10-07T00:41:01.798Z,1.13
2018-10-07T00:43:30.420Z,1.30
2018-10-07T00:45:59.142Z,1.77
2018-10-07T00:48:32.818Z,1.37
2018-10-07T00:51:01.533Z,1.20
2018-10-07T00:53:30.399Z,1.03
2018-10-07T00:55:59.218Z,1.57
2018-10-07T00:58:27.908Z,1.27
2018-10-07T01:00:57.054Z,1.07
2018-10-07T01:03:25.891Z,2.07
2018-10-07T01:05:54.698Z,1.00
2018-10-07T01:08:24.298Z,1.43
2018-10-07T01:10:54.014Z,1.10
2018-10-07T01:13:22.739Z,1.50
2018-10-07T01:15:51.372Z,1.47
2018-10-07T01:18:20.104Z,1.00
2018-10-07T01:20:48.789Z,1.03
2018-10-07T01:23:17.631Z,1.70
2018-10-07T01:25:46.332Z,0.90
2018-10-07T01:28:15.074Z,1.10
2018-10-07T01:30:43.779Z,1.30
2018-10-07T01:33:12.537Z,1.17
2018-10-07T01:35:41.160Z,1.23
2018-10-07T01:38:09.880Z,1.13
2018-10-07T01:40:38.547Z,1.57
2018-10-07T01:43:07.367Z,1.03
2018-10-07T01:45:38.762Z,1.10
2018-10-07T01:48:07.475Z,1.10
2018-10-07T01:50:36.170Z,1.47
2018-10-07T01:53:05.565Z,1.20
2018-10-07T01:55:34.262Z,1.67
2018-10-07T01:58:02.933Z,1.23
2018-10-07T02:00:31.565Z,1.40
2018-10-07T02:03:00.305Z,1.30
2018-10-07T02:05:28.941Z,1.40
2018-10-07T02:07:57.674Z,1.13
2018-10-07T02:10:26.482Z,1.17
2018-10-07T02:12:55.774Z,1.43
2018-10-07T02:15:24.570Z,1.40
2018-10-07T02:17:53.364Z,1.47
2018-10-07T02:20:22.051Z,1.40
2018-10-07T02:22:51.007Z,1.47
2018-10-07T02:25:19.689Z,1.77
2018-10-07T02:27:48.336Z,1.30
2018-10-07T02:30:17.062Z,1.10
2018-10-07T02:32:45.684Z,0.93
2018-10-07T02:35:15.166Z,1.50
2018-10-07T02:37:43.858Z,1.73
2018-10-07T02:40:13.096Z,0.90
2018-10-07T02:42:48.566Z,1.17
2018-10-07T02:45:17.266Z,1.43
2018-10-07T02:47:45.991Z,1.10
2018-10-07T02:50:19.108Z,1.40
2018-10-07T02:52:49.740Z,1.27
2018-10-07T02:55:23.413Z,1.67
2018-10-07T02:57:53.951Z,1.57
2018-10-07T03:00:27.082Z,1.80
2018-10-07T03:02:55.730Z,1.47
2018-10-07T03:05:24.446Z,1.10
2018-10-07T03:07:53.170Z,1.30
2018-10-07T03:10:21.933Z,1.40
2018-10-07T03:12:50.620Z,1.17
2018-10-07T03:15:19.371Z,2.30
2018-10-07T03:17:47.970Z,1.90
2018-10-07T03:20:16.669Z,1.80
2018-10-07T03:22:45.892Z,1.20
2018-10-07T03:25:14.517Z,3.30
2018-10-07T03:27:43.165Z,1.10
2018-10-07T03:30:12.679Z,1.53
2018-10-07T03:32:41.447Z,1.50
2018-10-07T03:35:10.090Z,1.03
2018-10-07T03:37:38.825Z,1.23
2018-10-07T03:40:07.555Z,1.40
2018-10-07T03:42:36.278Z,1.07
2018-10-07T03:45:05.180Z,1.20
2018-10-07T03:47:33.860Z,1.80
2018-10-07T03:50:02.496Z,1.00
2018-10-07T03:52:31.336Z,1.10
2018-10-07T03:54:59.966Z,1.37
2018-10-07T03:57:34.218Z,1.67
2018-10-07T04:00:03.042Z,1.73
2018-10-07T04:02:31.981Z,1.40
2018-10-07T04:05:00.685Z,1.63
2018-10-07T04:07:29.419Z,1.10
2018-10-07T04:09:58.081Z,1.10
2018-10-07T04:12:26.754Z,1.80
2018-10-07T04:14:56.043Z,1.50
2018-10-07T04:17:24.760Z,1.70
2018-10-07T04:19:53.470Z,1.30
2018-10-07T04:22:22.142Z,1.40
2018-10-07T04:24:51.944Z,1.50
2018-10-07T04:27:21.503Z,1.40
2018-10-07T04:29:50.154Z,1.50
2018-10-07T04:32:18.740Z,1.50
2018-10-07T04:34:47.379Z,1.40
2018-10-07T04:37:16.051Z,1.60
2018-10-07T04:39:44.766Z,1.20
2018-10-07T04:42:13.424Z,1.90
2018-10-07T04:44:42.119Z,1.30
2018-10-07T04:47:10.718Z,1.70
2018-10-07T04:49:39.358Z,1.83
2018-10-07T04:52:08.117Z,1.20
2018-10-07T04:54:36.837Z,1.30
2018-10-07T04:57:05.551Z,1.20
2018-10-07T04:59:34.197Z,1.30
2018-10-07T05:02:02.889Z,1.77
2018-10-07T05:04:32.777Z,1.87
2018-10-07T05:07:01.667Z,1.77
2018-10-07T05:09:30.466Z,1.67
2018-10-07T05:12:01.202Z,1.60
2018-10-07T05:14:30.050Z,1.50
2018-10-07T05:16:59.713Z,2.17
2018-10-07T05:19:28.399Z,1.97
2018-10-07T05:21:57.041Z,1.57
2018-10-07T05:24:25.750Z,1.60
2018-10-07T05:26:54.554Z,1.63
2018-10-07T05:29:23.842Z,1.50
2018-10-07T05:31:52.562Z,1.83
2018-10-07T05:34:21.791Z,2.33
2018-10-07T05:36:51.856Z,1.70
2018-10-07T05:39:20.585Z,1.30
2018-10-07T05:41:49.254Z,1.20
2018-10-07T05:44:17.952Z,1.93
2018-10-07T05:46:46.623Z,1.20
2018-10-07T05:49:15.292Z,1.40
2018-10-07T05:51:43.925Z,2.13
2018-10-07T05:54:12.740Z,1.43
2018-10-07T05:56:41.471Z,1.50
2018-10-07T05:59:10.349Z,1.30
2018-10-07T06:01:41.794Z,1.30
2018-10-07T06:04:22.474Z,1.60
2018-10-07T06:06:51.486Z,1.17
2018-10-07T06:09:26.733Z,1.17
2018-10-07T06:11:55.976Z,1.27
2018-10-07T06:14:35.846Z,1.40
2018-10-07T06:17:05.876Z,1.20
2018-10-07T06:19:34.690Z,1.47
2018-10-07T06:22:05.064Z,1.33
2018-10-07T06:24:35.237Z,1.40
2018-10-07T06:27:04.536Z,1.73
2018-10-07T06:29:33.329Z,1.60
2018-10-07T06:32:02.299Z,1.37
2018-10-07T06:34:31.001Z,1.20
2018-10-07T06:36:59.870Z,1.40
2018-10-07T06:39:29.281Z,1.73
2018-10-07T06:41:58.350Z,1.60
2018-10-07T06:44:27.081Z,2.07
2018-10-07T06:46:56.017Z,1.67
2018-10-07T06:49:25.876Z,1.50
2018-10-07T06:51:54.729Z,1.30
2018-10-07T06:54:23.557Z,1.70
2018-10-07T06:56:52.851Z,1.50
2018-10-07T06:59:21.745Z,1.20
2018-10-07T07:01:50.763Z,1.70
2018-10-07T07:04:19.775Z,1.60
2018-10-07T07:06:50.205Z,1.80
2018-10-07T07:09:19.814Z,2.33
2018-10-07T07:11:48.726Z,1.63
2018-10-07T07:14:17.486Z,2.53
2018-10-07T07:16:48.484Z,2.00
2018-10-07T07:19:18.162Z,2.33
2018-10-07T07:21:46.925Z,2.37
2018-10-07T07:24:16.536Z,2.90
2018-10-07T07:26:45.425Z,23.77
2018-10-07T07:29:14.150Z,21.40
2018-10-07T07:31:42.871Z,15.13
2018-10-07T07:34:12.401Z,14.53
2018-10-07T07:36:41.169Z,8.03
2018-10-07T07:39:10.017Z,5.20
2018-10-07T07:41:38.743Z,5.37
2018-10-07T07:44:07.700Z,3.70
2018-10-07T07:46:37.002Z,2.13
2018-10-07T07:49:05.954Z,4.97
2018-10-07T07:51:34.736Z,2.33
2018-10-07T07:54:03.642Z,2.97
2018-10-07T07:56:32.421Z,3.20
2018-10-07T07:59:01.310Z,3.00
2018-10-07T08:01:30.245Z,2.60
2018-10-07T08:03:58.999Z,2.07
2018-10-07T08:06:27.760Z,1.83
2018-10-07T08:08:56.689Z,1.97
2018-10-07T08:11:25.584Z,1.67
2018-10-07T08:13:54.533Z,1.80
2018-10-07T08:16:23.429Z,2.07
2018-10-07T08:18:52.339Z,1.50
2018-10-07T08:21:21.102Z,9.10
2018-10-07T08:23:49.848Z,5.17
2018-10-07T08:26:19.480Z,2.13
2018-10-07T08:28:48.353Z,1.60
2018-10-07T08:31:17.295Z,1.60
2018-10-07T08:33:46.033Z,1.80
2018-10-07T08:36:14.992Z,2.10
2018-10-07T08:38:44.270Z,1.20
2018-10-07T08:41:12.959Z,2.23
2018-10-07T08:43:42.406Z,1.37
2018-10-07T08:46:11.174Z,1.70
2018-10-07T08:48:41.114Z,1.40
2018-10-07T08:51:09.978Z,1.60
2018-10-07T08:53:38.680Z,1.20
2018-10-07T08:56:07.661Z,1.70
2018-10-07T08:58:36.857Z,1.27
2018-10-07T09:01:07.911Z,1.40
2018-10-07T09:03:36.679Z,1.60
2018-10-07T09:06:05.451Z,1.47
2018-10-07T09:08:34.153Z,1.47
2018-10-07T09:11:03.456Z,1.27
2018-10-07T09:13:33.626Z,1.53
2018-10-07T09:16:02.700Z,1.70
2018-10-07T09:18:31.362Z,1.30
2018-10-07T09:21:00.182Z,1.30
2018-10-07T09:23:29.000Z,1.10
2018-10-07T09:25:57.705Z,2.23
2018-10-07T09:28:26.480Z,1.23
2018-10-07T09:30:55.338Z,1.27
2018-10-07T09:33:24.079Z,1.30
2018-10-07T09:35:52.777Z,1.20
2018-10-07T09:38:21.733Z,1.10
2018-10-07T09:40:50.556Z,1.10
2018-10-07T09:43:19.404Z,1.87
2018-10-07T09:45:48.363Z,1.17
2018-10-07T09:48:17.194Z,1.30
2018-10-07T09:50:46.979Z,1.77
2018-10-07T09:53:15.811Z,1.10
2018-10-07T09:55:44.788Z,1.23
2018-10-07T09:58:13.595Z,1.30
2018-10-07T10:00:42.480Z,0.90
2018-10-07T10:03:12.653Z,1.10
2018-10-07T10:05:41.610Z,1.30
2018-10-07T10:08:10.500Z,1.07
2018-10-07T10:10:40.246Z,0.90
2018-10-07T10:13:10.606Z,1.07
2018-10-07T10:15:39.670Z,1.13
2018-10-07T10:18:12.956Z,0.90
2018-10-07T10:20:49.079Z,1.00
2018-10-07T10:23:28.061Z,1.03
2018-10-07T10:26:07.658Z,0.90
2018-10-07T10:29:16.074Z,1.03
2018-10-07T10:32:00.497Z,1.20
2018-10-07T10:35:38.267Z,0.90
2018-10-07T10:38:18.491Z,1.03
2018-10-07T10:40:52.910Z,1.00
2018-10-07T10:43:27.207Z,1.43
2018-10-07T10:46:01.789Z,1.27
2018-10-07T10:48:48.365Z,1.07
2018-10-07T10:51:24.927Z,1.00
2018-10-07T10:54:11.212Z,0.90
2018-10-07T10:56:48.520Z,1.10
2018-10-07T11:00:40.243Z,1.17
2018-10-07T11:05:21.477Z,1.27
2018-10-07T11:08:03.646Z,0.70
2018-10-07T11:10:42.008Z,1.00
2018-10-07T11:13:46.690Z,0.77
2018-10-07T11:16:26.869Z,0.90
2018-10-07T11:21:37.054Z,1.00
2018-10-07T11:24:11.997Z,0.67
2018-10-07T11:26:48.480Z,1.10
2018-10-07T11:30:25.646Z,0.90
2018-10-07T11:33:11.037Z,0.80
2018-10-07T11:35:48.095Z,0.80
2018-10-07T11:38:27.321Z,1.10
2018-10-07T11:41:23.225Z,0.90
2018-10-07T11:44:16.204Z,1.30
2018-10-07T11:46:57.893Z,1.27
2018-10-07T11:49:37.968Z,1.03
2018-10-07T11:53:18.428Z,0.80
2018-10-07T11:55:48.262Z,0.67
2018-10-07T11:58:21.592Z,1.63
2018-10-07T12:14:48.467Z,1.13
2018-10-07T12:17:23.257Z,1.23
2018-10-07T12:19:52.186Z,1.13
2018-10-07T12:22:23.253Z,1.47
2018-10-07T12:24:54.926Z,1.30
2018-10-07T12:27:31.718Z,1.23
2018-10-07T12:30:07.716Z,1.00
2018-10-07T12:32:38.380Z,1.13
2018-10-07T12:35:11.048Z,0.90
2018-10-07T12:37:43.731Z,1.10
2018-10-07T12:40:17.975Z,1.00
2018-10-07T12:42:54.102Z,0.80
2018-10-07T12:45:23.232Z,1.10
2018-10-07T12:47:52.390Z,1.30
2018-10-07T12:50:21.552Z,1.13
2018-10-07T12:52:53.882Z,0.90
2018-10-07T12:55:23.298Z,1.57
2018-10-07T12:57:56.994Z,1.43
2018-10-07T13:00:30.334Z,1.10
2018-10-07T13:03:05.836Z,1.40
2018-10-07T13:08:20.477Z,1.87
2018-10-07T13:10:58.669Z,1.27
2018-10-07T13:13:38.858Z,2.50
2018-10-07T13:16:15.732Z,18.77
2018-10-07T13:18:49.176Z,1.83
2018-10-07T13:21:19.261Z,1.67
2018-10-07T13:23:50.280Z,1.90
2018-10-07T13:40:35.370Z,2.00
2018-10-07T13:43:24.975Z,1.70
2018-10-07T13:45:59.328Z,1.40
2018-10-07T13:48:30.910Z,1.63
2018-10-07T13:53:47.595Z,1.27
2018-10-07T13:56:19.901Z,1.83
2018-10-07T13:58:55.583Z,1.47
2018-10-07T14:01:24.718Z,1.20
2018-10-07T14:03:56.178Z,1.20
2018-10-07T14:06:28.514Z,1.27
2018-10-07T14:09:10.306Z,1.33
2018-10-07T14:11:42.713Z,1.57
2018-10-07T14:14:11.946Z,1.40
2018-10-07T14:16:42.276Z,0.97
2018-10-07T14:19:12.274Z,1.33
2018-10-07T14:21:42.818Z,1.33
2018-10-07T14:24:12.238Z,1.50
2018-10-07T14:26:42.122Z,1.30
2018-10-07T14:29:12.724Z,1.23
2018-10-07T14:31:42.754Z,1.23
2018-10-07T14:34:22.588Z,1.47
2018-10-07T14:36:57.124Z,1.40
2018-10-07T14:39:28.438Z,1.83
2018-10-07T14:42:11.569Z,1.43
2018-10-07T14:45:09.385Z,1.57
2018-10-07T14:48:00.414Z,1.30
2018-10-07T14:50:47.068Z,2.10
2018-10-07T14:53:45.121Z,1.60
2018-10-07T15:10:17.333Z,1.13
2018-10-07T15:12:47.759Z,1.33
2018-10-07T15:15:18.017Z,1.30
2018-10-07T15:17:47.406Z,1.40
2018-10-07T15:20:19.697Z,2.30
2018-10-07T15:23:08.117Z,1.53
2018-10-07T15:25:37.129Z,1.27
2018-10-07T15:28:07.311Z,1.50
2018-10-07T15:30:36.432Z,1.30
2018-10-07T15:33:06.181Z,1.30
2018-10-07T15:35:38.019Z,1.13
2018-10-07T15:38:15.117Z,1.43
2018-10-07T15:40:45.075Z,1.80
2018-10-07T15:43:14.078Z,1.27
2018-10-07T15:45:42.898Z,1.23
2018-10-07T15:48:12.000Z,1.27
2018-10-07T15:50:43.426Z,1.60
2018-10-07T15:53:13.040Z,1.53
2018-10-07T15:55:41.867Z,1.40
2018-10-07T15:58:10.757Z,1.90
2018-10-07T16:00:39.833Z,1.53
2018-10-07T16:03:09.017Z,1.20
2018-10-07T16:05:37.825Z,1.40
2018-10-07T16:08:07.062Z,2.03
2018-10-07T16:10:35.923Z,43.73
2018-10-07T16:13:05.817Z,28.87
2018-10-07T16:15:34.667Z,3.10
2018-10-07T16:18:03.873Z,2.37
2018-10-07T16:20:32.994Z,1.50
2018-10-07T16:23:02.040Z,1.87
2018-10-07T16:25:31.037Z,1.40
2018-10-07T16:28:00.114Z,1.50
2018-10-07T16:30:29.198Z,1.57
2018-10-07T16:32:58.076Z,1.60
2018-10-07T16:35:27.593Z,1.27
2018-10-07T16:37:56.563Z,1.47
2018-10-07T16:40:25.669Z,1.30
2018-10-07T16:42:54.586Z,1.00
2018-10-07T16:45:24.267Z,1.33
2018-10-07T16:47:52.902Z,1.30
2018-10-07T16:50:21.737Z,1.83
2018-10-07T16:52:50.786Z,1.63
2018-10-07T16:55:35.582Z,1.47
2018-10-07T16:58:04.364Z,1.47
2018-10-07T17:00:33.978Z,1.40
2018-10-07T17:03:02.725Z,1.70
2018-10-07T17:05:31.832Z,1.50
2018-10-07T17:08:00.679Z,1.67
2018-10-07T17:10:30.377Z,1.53
2018-10-07T17:12:59.347Z,1.73
2018-10-07T17:15:28.111Z,1.63
2018-10-07T17:17:57.672Z,2.00
2018-10-07T17:20:26.765Z,2.13
2018-10-07T17:22:55.665Z,2.60
2018-10-07T17:25:24.614Z,4.30
2018-10-07T17:27:53.376Z,5.53
2018-10-07T17:30:22.226Z,5.63
2018-10-07T17:32:51.192Z,6.80
2018-10-07T17:35:20.090Z,6.30
2018-10-07T17:37:49.101Z,5.90
2018-10-07T17:40:18.244Z,6.95
2018-10-07T17:42:47.341Z,5.77
2018-10-07T17:45:17.889Z,6.70
2018-10-07T17:47:47.810Z,4.17
2018-10-07T17:50:16.596Z,2.80
2018-10-07T17:52:46.131Z,2.73
2018-10-07T17:55:15.134Z,2.73
2018-10-07T17:57:43.938Z,2.33
2018-10-07T18:00:14.148Z,2.73
2018-10-07T18:02:43.224Z,2.30
2018-10-07T18:05:11.952Z,1.93
2018-10-07T18:07:40.748Z,1.73
2018-10-07T18:10:09.822Z,2.00
2018-10-07T18:12:38.986Z,1.80
2018-10-07T18:15:08.737Z,1.60
2018-10-07T18:17:37.504Z,2.00
2018-10-07T18:20:06.501Z,2.07
2018-10-07T18:22:35.407Z,1.93
2018-10-07T18:25:04.377Z,2.00
2018-10-07T18:27:33.276Z,1.80
2018-10-07T18:30:02.034Z,1.90
2018-10-07T18:32:30.820Z,2.00
2018-10-07T18:34:59.801Z,1.80
2018-10-07T18:37:28.773Z,2.10
2018-10-07T18:39:57.612Z,2.30
2018-10-07T18:42:26.545Z,2.17
2018-10-07T18:44:55.940Z,2.03
2018-10-07T18:47:25.958Z,2.43
2018-10-07T18:49:54.992Z,2.10
2018-10-07T18:52:23.953Z,1.60
2018-10-07T18:54:52.746Z,1.80
2018-10-07T18:57:21.743Z,2.07
2018-10-07T18:59:56.089Z,2.00
2018-10-07T19:02:25.123Z,1.87
2018-10-07T19:04:54.292Z,1.90
2018-10-07T19:07:23.146Z,2.37
2018-10-07T19:09:52.012Z,2.37
2018-10-07T19:12:20.737Z,2.37
2018-10-07T19:14:49.651Z,2.13
2018-10-07T19:17:20.294Z,1.97
2018-10-07T19:19:49.958Z,2.50
2018-10-07T19:22:18.893Z,2.30
2018-10-07T19:24:47.994Z,2.53
2018-10-07T19:27:16.945Z,2.47
2018-10-07T19:29:45.750Z,2.47
2018-10-07T19:32:14.740Z,2.10
2018-10-07T19:34:43.903Z,2.37
2018-10-07T19:37:12.981Z,2.70
2018-10-07T19:39:41.891Z,2.60
2018-10-07T19:42:11.521Z,2.07
2018-10-07T19:44:41.443Z,2.40
2018-10-07T19:47:10.580Z,2.70
2018-10-07T19:49:39.325Z,3.30
2018-10-07T19:52:08.022Z,3.17
2018-10-07T19:54:36.824Z,3.30
2018-10-07T19:57:06.602Z,3.73
2018-10-07T19:59:35.419Z,3.23
2018-10-07T20:02:04.891Z,3.10
2018-10-07T20:04:33.595Z,3.20
2018-10-07T20:07:02.509Z,4.27
2018-10-07T20:09:32.288Z,2.80
2018-10-07T20:12:01.228Z,3.97
2018-10-07T20:14:30.000Z,3.83
2018-10-07T20:16:58.993Z,3.67
2018-10-07T20:19:28.009Z,3.97
2018-10-07T20:21:57.033Z,4.30
2018-10-07T20:24:25.739Z,3.27
2018-10-07T20:26:54.549Z,3.57
2018-10-07T20:29:23.493Z,5.23
2018-10-07T20:31:52.301Z,4.67
2018-10-07T20:34:20.994Z,5.40
2018-10-07T20:36:50.636Z,4.53
2018-10-07T20:39:19.372Z,5.77
2018-10-07T20:41:48.310Z,5.80
2018-10-07T20:44:17.024Z,6.37
2018-10-07T20:46:45.810Z,6.87
2018-10-07T20:49:14.503Z,5.73
2018-10-07T20:51:43.269Z,6.20
2018-10-07T20:54:12.065Z,5.30
2018-10-07T20:56:40.829Z,5.30
2018-10-07T20:59:09.575Z,4.57
2018-10-07T21:01:38.450Z,4.17
2018-10-07T21:04:07.171Z,3.80
2018-10-07T21:06:36.134Z,4.30
2018-10-07T21:09:09.874Z,4.17
2018-10-07T21:11:39.996Z,4.00
2018-10-07T21:14:08.760Z,4.53
2018-10-07T21:16:38.218Z,5.70
2018-10-07T21:19:10.596Z,5.63
2018-10-07T21:21:39.342Z,6.37
2018-10-07T21:24:08.101Z,7.17
2018-10-07T21:26:36.810Z,6.13
2018-10-07T21:29:05.626Z,5.60
2018-10-07T21:31:34.370Z,5.13
2018-10-07T21:34:03.187Z,4.60
2018-10-07T21:36:32.023Z,4.40
2018-10-07T21:39:01.199Z,3.90
2018-10-07T21:41:29.862Z,3.70
2018-10-07T21:43:58.529Z,3.40
2018-10-07T21:46:27.336Z,3.47
2018-10-07T21:48:56.018Z,3.70
2018-10-07T21:51:24.706Z,3.30
2018-10-07T21:53:53.506Z,3.87
2018-10-07T21:56:22.225Z,3.67
2018-10-07T21:58:51.528Z,3.63
2018-10-07T22:01:20.395Z,3.50
2018-10-07T22:03:50.295Z,4.00
2018-10-07T22:06:19.349Z,3.67
2018-10-07T22:08:51.105Z,3.90
2018-10-07T22:11:20.697Z,3.50
2018-10-07T22:13:53.276Z,3.63
2018-10-07T22:16:21.993Z,3.53
2018-10-07T22:18:51.307Z,4.13
2018-10-07T22:21:20.136Z,3.40
2018-10-07T22:23:48.902Z,3.43
2018-10-07T22:26:17.592Z,3.90
2018-10-07T22:28:46.296Z,3.40
2018-10-07T22:31:15.689Z,3.50
2018-10-07T22:33:45.100Z,3.50
2018-10-07T22:36:14.798Z,3.40
2018-10-07T22:38:43.588Z,3.80
2018-10-07T22:41:12.421Z,4.13
2018-10-07T22:43:41.161Z,3.70
2018-10-07T22:46:10.943Z,3.47
2018-10-07T22:48:39.685Z,3.90
2018-10-07T22:51:08.352Z,3.97
2018-10-07T22:53:37.084Z,4.17
2018-10-07T22:56:06.351Z,3.80
2018-10-07T22:58:35.151Z,3.90
2018-10-07T23:01:03.907Z,4.00
2018-10-07T23:03:32.735Z,3.73
2018-10-07T23:06:01.422Z,3.90
2018-10-07T23:08:30.158Z,3.53
2018-10-07T23:10:58.913Z,3.50
2018-10-07T23:13:27.578Z,3.60
2018-10-07T23:15:56.436Z,3.43
2018-10-07T23:18:25.256Z,4.50
2018-10-07T23:20:54.162Z,4.00
2018-10-07T23:23:23.030Z,3.73
2018-10-07T23:25:54.278Z,3.77
2018-10-07T23:28:22.920Z,3.80
2018-10-07T23:30:51.712Z,3.90
2018-10-07T23:33:20.367Z,3.70
2018-10-07T23:35:49.205Z,4.30
2018-10-07T23:38:18.028Z,3.40
2018-10-07T23:40:48.444Z,3.50
2018-10-07T23:43:17.860Z,4.00
2018-10-07T23:45:46.652Z,4.07
2018-10-07T23:48:15.607Z,4.93
2018-10-07T23:50:44.293Z,9.40
2018-10-07T23:53:13.124Z,8.80
2018-10-07T23:55:41.890Z,7.53
2018-10-07T23:58:10.716Z,9.57
